createdAt,value
2023-03-29T00:01:00.586Z,-1.68
2023-03-29T00:03:29.052Z,-1.73
2023-03-29T00:06:03.291Z,-1.76
2023-03-29T00:08:34.138Z,-1.80
2023-03-29T00:11:02.343Z,-1.83
2023-03-29T00:13:30.875Z,-1.88
2023-03-29T00:15:58.892Z,-1.89
2023-03-29T00:18:26.819Z,-1.88
2023-03-29T00:20:59.963Z,-1.86
2023-03-29T00:23:28.291Z,-1.86
2023-03-29T00:25:57.078Z,-1.87
2023-03-29T00:28:25.151Z,-1.85
2023-03-29T00:30:53.510Z,-1.83
2023-03-29T00:33:21.778Z,-1.84
2023-03-29T00:35:53.551Z,-1.86
2023-03-29T00:38:22.190Z,-1.87
2023-03-29T00:40:50.388Z,-1.89
2023-03-29T00:43:19.116Z,-1.92
2023-03-29T00:45:47.604Z,-1.94
2023-03-29T00:48:24.563Z,-1.96
2023-03-29T00:50:56.497Z,-1.98
2023-03-29T00:53:36.123Z,-1.97
2023-03-29T00:56:07.589Z,-1.95
2023-03-29T00:58:40.982Z,-1.92
2023-03-29T01:01:19.507Z,-1.84
2023-03-29T01:04:18.190Z,-1.79
2023-03-29T01:06:56.404Z,-1.74
2023-03-29T01:09:30.509Z,-1.73
2023-03-29T01:12:05.851Z,-1.73
2023-03-29T01:14:34.106Z,-1.71
2023-03-29T01:17:04.430Z,-1.72
2023-03-29T01:19:40.363Z,-1.70
2023-03-29T01:22:38.894Z,-1.70
2023-03-29T01:25:22.560Z,-1.71
2023-03-29T01:27:56.193Z,-1.72
2023-03-29T01:30:34.775Z,-1.71
2023-03-29T01:33:23.609Z,-1.75
2023-03-29T01:36:11.947Z,-1.76
2023-03-29T01:38:47.872Z,-1.76
2023-03-29T01:41:16.732Z,-1.81
2023-03-29T01:43:59.362Z,-1.85
2023-03-29T01:46:38.727Z,-1.79
2023-03-29T01:49:27.549Z,-1.75
2023-03-29T01:52:01.494Z,-1.76
2023-03-29T01:54:37.255Z,-1.79
2023-03-29T01:57:10.555Z,-1.78
2023-03-29T01:59:42.980Z,-1.76
2023-03-29T02:02:16.102Z,-1.76
2023-03-29T02:04:50.489Z,-1.76
2023-03-29T02:07:23.689Z,-1.77
2023-03-29T02:09:53.828Z,-1.78
2023-03-29T02:12:22.433Z,-1.79
2023-03-29T02:14:51.008Z,-1.82
2023-03-29T02:17:24.843Z,-1.85
2023-03-29T02:19:59.446Z,-1.91
2023-03-29T02:22:37.783Z,-1.98
2023-03-29T02:25:09.105Z,-2.02
2023-03-29T02:27:39.634Z,-2.04
2023-03-29T02:30:10.928Z,-2.10
2023-03-29T02:33:04.393Z,-2.13
2023-03-29T02:35:41.369Z,-2.14
2023-03-29T02:38:14.906Z,-2.15
2023-03-29T02:40:46.965Z,-2.18
2023-03-29T02:43:17.253Z,-2.22
2023-03-29T02:45:47.300Z,-2.22
2023-03-29T02:48:18.864Z,-2.24
2023-03-29T02:50:51.195Z,-2.27
2023-03-29T02:53:24.835Z,-2.26
2023-03-29T02:55:54.185Z,-2.25
2023-03-29T02:58:28.994Z,-2.25
2023-03-29T03:01:00.017Z,-2.25
2023-03-29T03:03:29.495Z,-2.26
2023-03-29T03:06:01.826Z,-2.23
2023-03-29T03:08:30.802Z,-2.20
2023-03-29T03:10:59.857Z,-2.18
2023-03-29T03:13:28.256Z,-2.19
2023-03-29T03:15:56.349Z,-2.22
2023-03-29T03:18:24.571Z,-2.24
2023-03-29T03:21:02.203Z,-2.25
2023-03-29T03:23:30.939Z,-2.23
2023-03-29T03:25:59.298Z,-2.19
2023-03-29T03:28:27.742Z,-2.18
2023-03-29T03:30:56.055Z,-2.18
2023-03-29T03:33:25.029Z,-2.19
2023-03-29T03:36:19.141Z,-2.24
2023-03-29T03:38:47.981Z,-2.22
2023-03-29T03:41:16.613Z,-2.21
2023-03-29T03:43:48.879Z,-2.24
2023-03-29T03:46:18.419Z,-2.23
2023-03-29T03:48:47.462Z,-2.20
2023-03-29T03:51:20.696Z,-2.16
2023-03-29T03:53:49.139Z,-2.26
2023-03-29T03:56:35.857Z,-2.27
2023-03-29T03:59:26.767Z,-2.28
2023-03-29T04:02:02.257Z,-2.29
2023-03-29T04:04:30.996Z,-2.29
2023-03-29T04:07:13.298Z,-2.35
2023-03-29T04:09:41.308Z,-2.43
2023-03-29T04:12:29.549Z,-2.45
2023-03-29T04:14:57.988Z,-2.50
2023-03-29T04:17:28.064Z,-2.51
2023-03-29T04:19:59.110Z,-2.58
2023-03-29T04:22:28.605Z,-2.63
2023-03-29T04:24:56.608Z,-2.66
2023-03-29T04:27:43.083Z,-2.69
2023-03-29T04:30:24.136Z,-2.73
2023-03-29T04:33:18.732Z,-2.75
2023-03-29T04:35:50.462Z,-2.79
2023-03-29T04:38:23.400Z,-2.82
2023-03-29T04:40:55.105Z,-2.86
2023-03-29T04:43:40.345Z,-2.90
2023-03-29T04:46:26.879Z,-2.92
2023-03-29T04:49:14.224Z,-2.96
2023-03-29T04:51:44.564Z,-2.97
2023-03-29T04:54:13.533Z,-2.95
2023-03-29T04:57:08.750Z,-2.91
2023-03-29T04:59:56.903Z,-2.88
2023-03-29T05:02:50.778Z,-2.79
2023-03-29T05:05:19.136Z,-2.33
2023-03-29T05:07:48.159Z,-1.60
2023-03-29T05:10:17.370Z,-0.95
2023-03-29T05:12:45.854Z,-0.41
2023-03-29T05:15:14.995Z,-0.15
2023-03-29T05:17:44.110Z,-0.13
2023-03-29T05:20:13.495Z,0.06
2023-03-29T05:22:43.880Z,0.34
2023-03-29T05:25:17.219Z,0.58
2023-03-29T05:27:46.067Z,0.87
2023-03-29T05:30:16.151Z,1.06
2023-03-29T05:32:50.846Z,0.34
2023-03-29T05:35:26.425Z,0.37
2023-03-29T05:37:55.682Z,0.64
2023-03-29T05:40:26.333Z,0.23
2023-03-29T05:43:12.682Z,-0.27
2023-03-29T05:45:41.767Z,-0.43
2023-03-29T05:48:10.774Z,-0.42
2023-03-29T05:50:41.169Z,-0.40
2023-03-29T05:53:09.937Z,-0.66
2023-03-29T05:55:38.909Z,-0.62
2023-03-29T05:58:07.125Z,-0.34
2023-03-29T06:00:38.101Z,-0.22
2023-03-29T06:03:25.577Z,-0.19
2023-03-29T06:06:02.659Z,-0.40
2023-03-29T06:08:33.819Z,-0.90
2023-03-29T06:11:28.162Z,-1.06
2023-03-29T06:14:14.315Z,-0.90
2023-03-29T06:16:47.817Z,-0.52
2023-03-29T06:19:17.455Z,-0.22
2023-03-29T06:21:47.500Z,0.18
2023-03-29T06:24:20.793Z,0.55
2023-03-29T06:26:53.622Z,0.47
2023-03-29T06:29:22.421Z,0.28
2023-03-29T06:31:51.943Z,0.50
2023-03-29T06:34:46.366Z,0.62
2023-03-29T06:37:24.019Z,0.09
2023-03-29T06:40:01.268Z,-0.16
2023-03-29T06:42:36.074Z,-0.26
2023-03-29T06:45:24.641Z,-0.03
2023-03-29T06:47:54.805Z,0.04
2023-03-29T06:50:24.402Z,-0.09
2023-03-29T06:53:08.354Z,0.05
2023-03-29T06:55:36.709Z,0.20
2023-03-29T06:58:23.576Z,-0.15
2023-03-29T07:00:52.164Z,-0.35
2023-03-29T07:03:30.235Z,0.01
2023-03-29T07:06:09.804Z,0.30
2023-03-29T07:08:47.662Z,0.20
2023-03-29T07:11:27.319Z,0.26
2023-03-29T07:13:58.510Z,0.33
2023-03-29T07:16:27.513Z,0.09
2023-03-29T07:19:09.772Z,-0.06
2023-03-29T07:21:58.914Z,-0.17
2023-03-29T07:24:44.534Z,-0.35
2023-03-29T07:27:13.100Z,-0.32
2023-03-29T07:29:41.218Z,-0.54
2023-03-29T07:32:10.815Z,-0.48
2023-03-29T07:34:39.094Z,-0.42
2023-03-29T07:37:09.625Z,-0.37
2023-03-29T07:39:39.734Z,-0.05
2023-03-29T07:42:28.298Z,0.25
2023-03-29T07:44:58.798Z,0.47
2023-03-29T07:47:31.576Z,0.41
2023-03-29T07:50:00.281Z,0.43
2023-03-29T07:52:30.298Z,0.57
2023-03-29T07:55:00.027Z,0.65
2023-03-29T07:57:40.018Z,0.61
2023-03-29T08:00:11.790Z,0.72
2023-03-29T08:02:46.942Z,0.85
2023-03-29T08:05:23.216Z,0.89
2023-03-29T08:07:59.646Z,0.78
2023-03-29T08:10:52.112Z,1.00
2023-03-29T08:13:37.666Z,1.28
2023-03-29T08:16:28.993Z,1.15
2023-03-29T08:19:04.823Z,1.16
2023-03-29T08:22:08.791Z,0.93
2023-03-29T08:25:04.824Z,0.83
2023-03-29T08:27:37.830Z,0.66
2023-03-29T08:30:09.596Z,0.57
2023-03-29T08:32:39.431Z,0.58
2023-03-29T08:35:09.888Z,0.77
2023-03-29T08:37:44.484Z,0.70
2023-03-29T08:40:27.417Z,0.86
2023-03-29T08:43:43.924Z,1.13
2023-03-29T08:46:35.265Z,1.38
2023-03-29T08:49:17.224Z,1.30
2023-03-29T08:51:53.157Z,1.10
2023-03-29T08:54:27.319Z,0.72
2023-03-29T08:57:30.848Z,0.96
2023-03-29T09:00:10.743Z,1.05
2023-03-29T09:02:43.838Z,1.06
2023-03-29T09:05:25.277Z,1.05
2023-03-29T09:08:04.030Z,1.06
2023-03-29T09:10:42.771Z,1.09
2023-03-29T09:13:32.885Z,1.05
2023-03-29T09:16:06.245Z,0.63
2023-03-29T09:19:10.592Z,0.65
2023-03-29T09:21:51.906Z,0.64
2023-03-29T09:24:40.057Z,0.76
2023-03-29T09:27:35.423Z,0.78
2023-03-29T09:30:35.782Z,0.92
2023-03-29T09:33:32.884Z,1.12
2023-03-29T09:36:06.293Z,1.07
2023-03-29T09:38:40.416Z,1.14
2023-03-29T09:41:33.970Z,1.27
2023-03-29T09:44:29.735Z,0.97
2023-03-29T09:47:26.591Z,1.16
2023-03-29T09:50:01.615Z,1.36
2023-03-29T09:52:30.139Z,1.31
2023-03-29T09:55:16.420Z,1.17
2023-03-29T09:58:02.360Z,1.23
2023-03-29T10:00:34.855Z,1.37
2023-03-29T10:03:03.880Z,1.45
2023-03-29T10:05:46.239Z,1.49
2023-03-29T10:08:29.277Z,1.61
2023-03-29T10:11:01.081Z,1.42
2023-03-29T10:13:33.191Z,1.33
2023-03-29T10:16:08.184Z,1.46
2023-03-29T10:18:42.064Z,1.52
2023-03-29T10:21:21.107Z,1.42
2023-03-29T10:23:57.519Z,1.59
2023-03-29T10:26:34.080Z,1.67
2023-03-29T10:29:06.438Z,1.85
2023-03-29T10:31:41.891Z,1.89
2023-03-29T10:34:15.393Z,1.97
2023-03-29T10:37:01.529Z,2.22
2023-03-29T10:39:34.738Z,2.40
2023-03-29T10:42:04.854Z,2.31
2023-03-29T10:44:36.896Z,2.29
2023-03-29T10:47:24.097Z,2.26
2023-03-29T10:49:56.980Z,2.34
2023-03-29T10:52:26.768Z,2.15
2023-03-29T10:54:56.834Z,2.27
2023-03-29T10:57:53.559Z,2.22
2023-03-29T11:00:51.402Z,2.19
2023-03-29T11:03:21.595Z,2.27
2023-03-29T11:06:04.404Z,2.39
2023-03-29T11:08:54.121Z,2.24
2023-03-29T11:11:44.272Z,2.34
2023-03-29T11:14:36.178Z,2.27
2023-03-29T11:17:12.608Z,2.47
2023-03-29T11:19:50.054Z,2.55
2023-03-29T11:22:32.164Z,2.56
2023-03-29T11:25:15.399Z,2.63
2023-03-29T11:28:06.881Z,2.63
2023-03-29T11:30:57.272Z,2.57
2023-03-29T11:33:33.792Z,2.63
2023-03-29T11:36:21.607Z,2.75
2023-03-29T11:38:55.823Z,2.58
2023-03-29T11:41:35.421Z,2.39
2023-03-29T11:44:26.434Z,2.50
2023-03-29T11:47:10.017Z,2.78
2023-03-29T11:49:49.556Z,2.98
2023-03-29T11:52:33.917Z,2.99
2023-03-29T11:55:10.181Z,3.10
2023-03-29T11:57:48.136Z,3.16
2023-03-29T12:00:22.676Z,3.26
2023-03-29T12:02:57.244Z,3.29
2023-03-29T12:05:32.800Z,3.20
2023-03-29T12:08:07.513Z,3.14
2023-03-29T12:11:01.255Z,3.09
2023-03-29T12:13:44.900Z,2.94
2023-03-29T12:16:39.893Z,2.99
2023-03-29T12:19:40.297Z,3.06
2023-03-29T12:22:11.017Z,3.01
2023-03-29T12:24:46.035Z,3.03
2023-03-29T12:27:24.215Z,3.11
2023-03-29T12:30:21.913Z,3.05
2023-03-29T12:33:09.692Z,3.09
2023-03-29T12:36:11.691Z,2.90
2023-03-29T12:39:00.373Z,2.96
2023-03-29T12:41:51.888Z,3.04
2023-03-29T12:44:41.320Z,3.00
2023-03-29T12:47:42.727Z,3.16
2023-03-29T12:50:42.532Z,3.28
2023-03-29T12:53:37.367Z,3.27
2023-03-29T12:56:11.983Z,3.04
2023-03-29T12:58:40.510Z,2.95
2023-03-29T13:01:27.690Z,2.97
2023-03-29T13:04:01.969Z,3.04
2023-03-29T13:06:52.241Z,3.23
2023-03-29T13:09:31.175Z,3.37
2023-03-29T13:12:08.299Z,3.29
2023-03-29T13:14:40.922Z,3.16
2023-03-29T13:17:22.129Z,3.22
2023-03-29T13:19:56.511Z,3.30
2023-03-29T13:22:57.003Z,3.31
2023-03-29T13:25:45.154Z,3.26
2023-03-29T13:28:39.196Z,3.21
2023-03-29T13:31:35.592Z,3.13
2023-03-29T13:34:13.322Z,3.25
2023-03-29T13:37:18.596Z,3.20
2023-03-29T13:39:53.142Z,3.28
2023-03-29T13:42:34.276Z,3.46
2023-03-29T13:45:14.696Z,3.59
2023-03-29T13:47:54.901Z,3.58
2023-03-29T13:50:40.528Z,3.55
2023-03-29T13:53:45.889Z,3.46
2023-03-29T13:56:25.269Z,3.36
2023-03-29T13:59:17.438Z,3.39
2023-03-29T14:01:54.821Z,3.54
2023-03-29T14:04:46.982Z,3.71
2023-03-29T14:07:18.886Z,3.83
2023-03-29T14:09:50.552Z,3.89
2023-03-29T14:12:18.955Z,3.84
2023-03-29T14:14:58.149Z,3.78
2023-03-29T14:17:27.544Z,3.73
2023-03-29T14:19:58.833Z,3.84
2023-03-29T14:22:33.001Z,3.86
2023-03-29T14:25:06.719Z,3.89
2023-03-29T14:27:37.358Z,3.70
2023-03-29T14:30:28.728Z,3.65
2023-03-29T14:32:57.147Z,3.60
2023-03-29T14:35:32.380Z,3.59
2023-03-29T14:38:00.785Z,3.67
2023-03-29T14:40:31.321Z,3.61
2023-03-29T14:43:05.809Z,3.62
2023-03-29T14:45:34.384Z,3.72
2023-03-29T14:48:03.586Z,3.76
2023-03-29T14:50:32.632Z,3.71
2023-03-29T14:53:02.260Z,3.76
2023-03-29T14:55:32.029Z,3.82
2023-03-29T14:58:01.109Z,3.87
2023-03-29T15:00:51.832Z,3.72
2023-03-29T15:03:27.483Z,3.68
2023-03-29T15:06:04.813Z,3.70
2023-03-29T15:08:37.927Z,3.68
2023-03-29T15:11:19.816Z,3.68
2023-03-29T15:13:49.998Z,3.78
2023-03-29T15:16:22.832Z,3.81
2023-03-29T15:18:53.062Z,3.75
2023-03-29T15:21:23.023Z,3.78
2023-03-29T15:23:59.817Z,3.69
2023-03-29T15:26:32.969Z,3.60
2023-03-29T15:29:13.669Z,3.58
2023-03-29T15:31:42.505Z,3.61
2023-03-29T15:34:25.914Z,3.65
2023-03-29T15:36:54.731Z,3.64
2023-03-29T15:39:23.138Z,3.64
2023-03-29T15:41:53.307Z,3.62
2023-03-29T15:44:43.655Z,3.61
2023-03-29T15:47:13.282Z,3.65
2023-03-29T15:49:42.138Z,3.59
2023-03-29T15:52:10.792Z,3.52
2023-03-29T15:54:39.023Z,3.49
2023-03-29T15:57:11.951Z,3.47
2023-03-29T15:59:40.198Z,3.50
2023-03-29T16:02:14.166Z,3.46
2023-03-29T16:04:43.208Z,3.46
2023-03-29T16:07:16.214Z,3.42
2023-03-29T16:09:47.654Z,3.39
2023-03-29T16:12:16.541Z,3.34
2023-03-29T16:14:44.844Z,3.32
2023-03-29T16:17:12.918Z,3.31
2023-03-29T16:19:40.968Z,3.24
2023-03-29T16:22:09.086Z,3.18
2023-03-29T16:24:37.451Z,3.13
2023-03-29T16:27:05.836Z,3.05
2023-03-29T16:29:33.844Z,2.99
2023-03-29T16:32:04.737Z,2.94
2023-03-29T16:34:36.244Z,2.89
2023-03-29T16:37:04.400Z,2.81
2023-03-29T16:39:32.471Z,2.77
2023-03-29T16:42:00.533Z,2.71
2023-03-29T16:44:28.578Z,2.67
2023-03-29T16:46:58.548Z,2.63
2023-03-29T16:49:26.846Z,2.57
2023-03-29T16:51:55.236Z,2.53
2023-03-29T16:54:26.041Z,2.46
2023-03-29T16:56:54.238Z,2.41
2023-03-29T16:59:22.492Z,2.35
2023-03-29T17:01:51.212Z,2.26
2023-03-29T17:04:19.685Z,2.20
2023-03-29T17:06:47.703Z,2.14
2023-03-29T17:09:17.850Z,2.08
2023-03-29T17:11:46.594Z,1.98
2023-03-29T17:14:15.083Z,1.92
2023-03-29T17:16:43.457Z,1.85
2023-03-29T17:19:11.729Z,1.75
2023-03-29T17:21:39.973Z,1.63
2023-03-29T17:24:09.933Z,1.51
2023-03-29T17:26:38.366Z,1.38
2023-03-29T17:29:06.483Z,1.25
2023-03-29T17:31:36.362Z,1.14
2023-03-29T17:34:04.647Z,1.07
2023-03-29T17:36:33.917Z,1.02
2023-03-29T17:39:02.817Z,0.95
2023-03-29T17:41:31.403Z,0.87
2023-03-29T17:43:59.737Z,0.87
2023-03-29T17:46:28.809Z,0.93
2023-03-29T17:48:59.348Z,0.98
2023-03-29T17:51:27.730Z,1.01
2023-03-29T17:53:57.376Z,1.03
2023-03-29T17:56:26.440Z,1.04
2023-03-29T17:58:54.528Z,1.11
2023-03-29T18:01:23.125Z,1.15
2023-03-29T18:03:51.609Z,1.11
2023-03-29T18:06:21.117Z,1.07
2023-03-29T18:08:49.734Z,1.05
2023-03-29T18:11:22.728Z,1.05
2023-03-29T18:13:52.642Z,1.04
2023-03-29T18:16:22.012Z,0.96
2023-03-29T18:18:50.078Z,0.86
2023-03-29T18:21:18.466Z,0.75
2023-03-29T18:23:48.261Z,0.69
2023-03-29T18:26:16.925Z,0.61
2023-03-29T18:28:47.480Z,0.51
2023-03-29T18:31:15.743Z,0.41
2023-03-29T18:33:43.912Z,0.32
2023-03-29T18:36:13.635Z,0.23
2023-03-29T18:38:43.765Z,0.16
2023-03-29T18:41:14.335Z,0.09
2023-03-29T18:43:43.496Z,0.00
2023-03-29T18:46:12.325Z,-0.07
2023-03-29T18:48:41.225Z,-0.14
2023-03-29T18:51:11.673Z,-0.18
2023-03-29T18:53:41.863Z,-0.23
2023-03-29T18:56:10.280Z,-0.25
2023-03-29T18:58:38.228Z,-0.28
2023-03-29T19:01:07.098Z,-0.27
2023-03-29T19:03:36.560Z,-0.19
2023-03-29T19:06:05.540Z,-0.17
2023-03-29T19:08:36.732Z,-0.22
2023-03-29T19:11:07.521Z,-0.29
2023-03-29T19:13:36.383Z,-0.37
2023-03-29T19:16:04.940Z,-0.45
2023-03-29T19:18:33.897Z,-0.53
2023-03-29T19:21:02.653Z,-0.59
2023-03-29T19:23:30.982Z,-0.62
2023-03-29T19:26:02.839Z,-0.60
2023-03-29T19:28:32.706Z,-0.63
2023-03-29T19:31:02.722Z,-0.66
2023-03-29T19:33:30.979Z,-0.68
2023-03-29T19:35:59.420Z,-0.70
2023-03-29T19:38:27.491Z,-0.73
2023-03-29T19:40:55.593Z,-0.75
2023-03-29T19:43:24.985Z,-0.76
2023-03-29T19:45:52.978Z,-0.77
2023-03-29T19:48:23.840Z,-0.77
2023-03-29T19:50:52.847Z,-0.69
2023-03-29T19:53:21.507Z,-0.65
2023-03-29T19:55:49.587Z,-0.68
2023-03-29T19:58:17.883Z,-0.72
2023-03-29T20:00:47.335Z,-0.76
2023-03-29T20:03:15.837Z,-0.80
2023-03-29T20:05:44.035Z,-0.85
2023-03-29T20:08:12.374Z,-0.89
2023-03-29T20:10:40.506Z,-0.95
2023-03-29T20:13:08.845Z,-1.01
2023-03-29T20:15:37.162Z,-1.07
2023-03-29T20:18:06.211Z,-1.13
2023-03-29T20:20:35.860Z,-1.19
2023-03-29T20:23:05.505Z,-1.24
2023-03-29T20:25:35.745Z,-1.24
2023-03-29T20:28:04.983Z,-1.21
2023-03-29T20:30:33.231Z,-1.17
2023-03-29T20:33:01.499Z,-1.17
2023-03-29T20:35:29.616Z,-1.17
2023-03-29T20:37:57.654Z,-1.14
2023-03-29T20:40:25.721Z,-1.14
2023-03-29T20:42:54.436Z,-1.14
2023-03-29T20:45:22.344Z,-1.17
2023-03-29T20:47:57.928Z,-1.23
2023-03-29T20:50:26.759Z,-1.28
2023-03-29T20:53:03.835Z,-1.33
2023-03-29T20:55:33.740Z,-1.37
2023-03-29T20:58:02.848Z,-1.44
2023-03-29T21:00:33.652Z,-1.49
2023-03-29T21:03:04.177Z,-1.52
2023-03-29T21:05:33.963Z,-1.57
2023-03-29T21:08:02.695Z,-1.62
2023-03-29T21:10:31.001Z,-1.68
2023-03-29T21:13:02.854Z,-1.73
2023-03-29T21:15:32.277Z,-1.77
2023-03-29T21:18:00.700Z,-1.82
2023-03-29T21:20:28.906Z,-1.88
2023-03-29T21:22:57.281Z,-1.90
2023-03-29T21:25:25.417Z,-1.91
2023-03-29T21:27:53.405Z,-1.90
2023-03-29T21:30:21.593Z,-1.92
2023-03-29T21:32:49.608Z,-1.95
2023-03-29T21:35:17.857Z,-2.00
2023-03-29T21:37:46.176Z,-2.03
2023-03-29T21:40:14.606Z,-2.09
2023-03-29T21:42:42.843Z,-2.13
2023-03-29T21:45:11.249Z,-2.19
2023-03-29T21:47:39.283Z,-2.23
2023-03-29T21:50:08.073Z,-2.23
2023-03-29T21:52:37.954Z,-2.25
2023-03-29T21:55:06.940Z,-2.24
2023-03-29T21:57:35.057Z,-2.16
2023-03-29T22:00:05.410Z,-2.16
2023-03-29T22:02:33.585Z,-2.19
2023-03-29T22:05:01.781Z,-2.20
2023-03-29T22:07:29.844Z,-2.22
2023-03-29T22:09:59.012Z,-2.28
2023-03-29T22:12:27.228Z,-2.35
2023-03-29T22:14:55.237Z,-2.40
2023-03-29T22:17:23.256Z,-2.42
2023-03-29T22:19:51.894Z,-2.46
2023-03-29T22:22:21.860Z,-2.50
2023-03-29T22:24:53.344Z,-2.55
2023-03-29T22:27:22.646Z,-2.62
2023-03-29T22:29:50.578Z,-2.67
2023-03-29T22:32:18.616Z,-2.70
2023-03-29T22:34:46.750Z,-2.74
2023-03-29T22:37:14.688Z,-2.80
2023-03-29T22:39:42.808Z,-2.85
2023-03-29T22:42:10.865Z,-2.91
2023-03-29T22:44:38.833Z,-2.97
2023-03-29T22:47:07.545Z,-3.03
2023-03-29T22:49:35.735Z,-3.09
2023-03-29T22:52:03.704Z,-3.14
2023-03-29T22:54:32.010Z,-3.19
2023-03-29T22:57:00.142Z,-3.23
2023-03-29T22:59:28.252Z,-3.27
2023-03-29T23:01:56.592Z,-3.28
2023-03-29T23:04:24.675Z,-3.30
2023-03-29T23:06:53.347Z,-3.33
2023-03-29T23:09:21.349Z,-3.36
2023-03-29T23:11:49.331Z,-3.39
2023-03-29T23:14:19.103Z,-3.41
2023-03-29T23:16:47.342Z,-3.43
2023-03-29T23:19:15.340Z,-3.45
2023-03-29T23:21:43.301Z,-3.47
2023-03-29T23:24:11.242Z,-3.49
2023-03-29T23:26:39.320Z,-3.50
2023-03-29T23:29:07.878Z,-3.52
2023-03-29T23:31:37.847Z,-3.53
2023-03-29T23:34:05.918Z,-3.55
2023-03-29T23:36:33.851Z,-3.58
2023-03-29T23:39:02.175Z,-3.60
2023-03-29T23:41:30.882Z,-3.62
2023-03-29T23:43:59.009Z,-3.66
2023-03-29T23:46:27.211Z,-3.66
2023-03-29T23:48:55.512Z,-3.68
2023-03-29T23:51:28.993Z,-3.67
2023-03-29T23:53:57.246Z,-3.68
2023-03-29T23:56:25.211Z,-3.71
2023-03-29T23:58:53.272Z,-3.72
